sensor_id;sensor_type;location;lat;lon;timestamp;pressure;altitude;pressure_sealevel;temperature;humidity
13553;BME280;6847;48.830;9.116;2022-08-03T00:01:09;97976.75;;;24.01;39.30
13553;BME280;6847;48.830;9.116;2022-08-03T00:03:55;97966.44;;;23.97;39.18
13553;BME280;6847;48.830;9.116;2022-08-03T00:06:41;97971.06;;;23.93;39.50
13553;BME280;6847;48.830;9.116;2022-08-03T00:09:27;97973.38;;;23.91;39.69
13553;BME280;6847;48.830;9.116;2022-08-03T00:12:19;97963.06;;;23.88;39.59
13553;BME280;6847;48.830;9.116;2022-08-03T00:15:05;97964.22;;;23.87;39.66
13553;BME280;6847;48.830;9.116;2022-08-03T00:17:51;97952.72;;;23.85;39.80
13553;BME280;6847;48.830;9.116;2022-08-03T00:20:36;97957.38;;;23.81;39.68
13553;BME280;6847;48.830;9.116;2022-08-03T00:23:24;97961.16;;;23.73;39.99
13553;BME280;6847;48.830;9.116;2022-08-03T00:26:12;97959.41;;;23.65;40.17
13553;BME280;6847;48.830;9.116;2022-08-03T00:29:01;97949.06;;;23.62;40.13
13553;BME280;6847;48.830;9.116;2022-08-03T00:31:48;97942.66;;;23.58;40.18
13553;BME280;6847;48.830;9.116;2022-08-03T00:34:34;97952.13;;;23.57;40.30
13553;BME280;6847;48.830;9.116;2022-08-03T00:37:19;97947.31;;;23.54;40.27
13553;BME280;6847;48.830;9.116;2022-08-03T00:40:06;97947.22;;;23.50;40.44
13553;BME280;6847;48.830;9.116;2022-08-03T00:42:58;97866.13;;;22.92;40.47
13553;BME280;6847;48.830;9.116;2022-08-03T00:45:47;97954.06;;;23.41;40.51
13553;BME280;6847;48.830;9.116;2022-08-03T00:48:33;97949.28;;;23.38;40.60
13553;BME280;6847;48.830;9.116;2022-08-03T00:51:22;97941.25;;;23.33;40.62
13553;BME280;6847;48.830;9.116;2022-08-03T00:54:08;97951.94;;;23.34;40.65
13553;BME280;6847;48.830;9.116;2022-08-03T00:56:57;97951.50;;;23.32;40.96
13553;BME280;6847;48.830;9.116;2022-08-03T00:59:43;97937.88;;;23.23;40.97
13553;BME280;6847;48.830;9.116;2022-08-03T01:02:32;97941.81;;;23.22;41.02
13553;BME280;6847;48.830;9.116;2022-08-03T01:05:18;97940.28;;;23.25;41.05
13553;BME280;6847;48.830;9.116;2022-08-03T01:08:08;97945.09;;;23.28;41.13
13553;BME280;6847;48.830;9.116;2022-08-03T01:11:02;97936.00;;;23.28;41.10
13553;BME280;6847;48.830;9.116;2022-08-03T01:13:57;97932.34;;;23.23;41.12
13553;BME280;6847;48.830;9.116;2022-08-03T01:16:54;97936.28;;;23.22;41.09
13553;BME280;6847;48.830;9.116;2022-08-03T01:19:48;97933.09;;;23.20;41.36
13553;BME280;6847;48.830;9.116;2022-08-03T01:25:59;97934.50;;;23.14;41.32
13553;BME280;6847;48.830;9.116;2022-08-03T01:28:57;97929.34;;;23.13;41.58
13553;BME280;6847;48.830;9.116;2022-08-03T01:31:51;97924.16;;;23.11;41.50
13553;BME280;6847;48.830;9.116;2022-08-03T01:34:42;97924.09;;;23.08;41.62
13553;BME280;6847;48.830;9.116;2022-08-03T01:37:35;97927.22;;;23.06;41.83
13553;BME280;6847;48.830;9.116;2022-08-03T01:40:24;97926.41;;;23.06;41.84
13553;BME280;6847;48.830;9.116;2022-08-03T01:43:14;97918.50;;;23.04;41.82
13553;BME280;6847;48.830;9.116;2022-08-03T01:46:03;97919.22;;;23.01;41.84
13553;BME280;6847;48.830;9.116;2022-08-03T01:48:56;97913.59;;;22.98;42.09
13553;BME280;6847;48.830;9.116;2022-08-03T01:51:44;97916.28;;;22.94;42.15
13553;BME280;6847;48.830;9.116;2022-08-03T01:54:34;97917.34;;;22.90;42.00
13553;BME280;6847;48.830;9.116;2022-08-03T01:57:21;97913.34;;;22.87;42.13
13553;BME280;6847;48.830;9.116;2022-08-03T02:00:09;97909.69;;;22.83;42.29
13553;BME280;6847;48.830;9.116;2022-08-03T02:02:55;97898.94;;;22.78;42.42
13553;BME280;6847;48.830;9.116;2022-08-03T02:05:44;97904.00;;;22.76;42.44
13553;BME280;6847;48.830;9.116;2022-08-03T02:08:31;97903.75;;;22.81;42.55
13553;BME280;6847;48.830;9.116;2022-08-03T02:11:17;97906.50;;;22.81;42.49
13553;BME280;6847;48.830;9.116;2022-08-03T02:14:04;97904.44;;;22.78;42.49
13553;BME280;6847;48.830;9.116;2022-08-03T02:16:50;97896.31;;;22.69;42.65
13553;BME280;6847;48.830;9.116;2022-08-03T02:19:37;97903.50;;;22.74;42.69
13553;BME280;6847;48.830;9.116;2022-08-03T02:22:26;97907.44;;;22.73;42.74
13553;BME280;6847;48.830;9.116;2022-08-03T02:25:13;97909.03;;;22.74;42.62
13553;BME280;6847;48.830;9.116;2022-08-03T02:28:03;97911.38;;;22.72;42.86
13553;BME280;6847;48.830;9.116;2022-08-03T02:30:53;97850.44;;;22.33;42.98
13553;BME280;6847;48.830;9.116;2022-08-03T02:33:41;97914.03;;;22.68;43.03
13553;BME280;6847;48.830;9.116;2022-08-03T02:36:32;97857.84;;;22.29;42.98
13553;BME280;6847;48.830;9.116;2022-08-03T02:39:23;97913.47;;;22.63;43.16
13553;BME280;6847;48.830;9.116;2022-08-03T02:42:11;97761.97;;;21.63;43.14
13553;BME280;6847;48.830;9.116;2022-08-03T02:45:02;97911.00;;;22.58;43.27
13553;BME280;6847;48.830;9.116;2022-08-03T02:47:51;97906.53;;;22.53;43.19
13553;BME280;6847;48.830;9.116;2022-08-03T02:50:41;97910.09;;;22.53;43.32
13553;BME280;6847;48.830;9.116;2022-08-03T02:53:29;97905.31;;;22.50;43.31
13553;BME280;6847;48.830;9.116;2022-08-03T02:56:18;97899.69;;;22.47;43.43
13553;BME280;6847;48.830;9.116;2022-08-03T02:59:05;97886.75;;;22.35;43.44
13553;BME280;6847;48.830;9.116;2022-08-03T03:01:52;97905.81;;;22.40;43.57
13553;BME280;6847;48.830;9.116;2022-08-03T03:04:38;97874.91;;;22.19;43.77
13553;BME280;6847;48.830;9.116;2022-08-03T03:07:25;97896.66;;;22.36;43.78
13553;BME280;6847;48.830;9.116;2022-08-03T03:10:11;97903.25;;;22.32;43.63
13553;BME280;6847;48.830;9.116;2022-08-03T03:12:59;97901.19;;;22.29;43.81
13553;BME280;6847;48.830;9.116;2022-08-03T03:15:46;97897.63;;;22.28;43.93
13553;BME280;6847;48.830;9.116;2022-08-03T03:18:33;97902.69;;;22.26;43.86
13553;BME280;6847;48.830;9.116;2022-08-03T03:21:20;97902.69;;;22.26;43.93
13553;BME280;6847;48.830;9.116;2022-08-03T03:24:07;97903.84;;;22.25;43.93
13553;BME280;6847;48.830;9.116;2022-08-03T03:26:54;97891.00;;;22.17;43.87
13553;BME280;6847;48.830;9.116;2022-08-03T03:29:55;97893.53;;;22.22;44.04
13553;BME280;6847;48.830;9.116;2022-08-03T03:32:41;97869.75;;;22.02;44.00
13553;BME280;6847;48.830;9.116;2022-08-03T03:35:27;97896.41;;;22.13;44.22
13553;BME280;6847;48.830;9.116;2022-08-03T03:38:12;97899.56;;;22.12;44.19
13553;BME280;6847;48.830;9.116;2022-08-03T03:40:57;97893.94;;;22.08;44.18
13553;BME280;6847;48.830;9.116;2022-08-03T03:43:44;97871.59;;;21.86;44.39
13553;BME280;6847;48.830;9.116;2022-08-03T03:46:56;97912.19;;;22.13;44.09
13553;BME280;6847;48.830;9.116;2022-08-03T03:49:42;97895.66;;;22.13;44.25
13553;BME280;6847;48.830;9.116;2022-08-03T03:52:28;97902.75;;;22.14;44.35
13553;BME280;6847;48.830;9.116;2022-08-03T03:55:17;97890.25;;;22.04;44.60
13553;BME280;6847;48.830;9.116;2022-08-03T03:58:02;97900.25;;;22.09;44.45
13553;BME280;6847;48.830;9.116;2022-08-03T04:00:48;97507.63;;;19.61;44.57
13553;BME280;6847;48.830;9.116;2022-08-03T04:03:35;97897.03;;;22.07;44.58
13553;BME280;6847;48.830;9.116;2022-08-03T04:06:20;97876.88;;;21.91;44.70
13553;BME280;6847;48.830;9.116;2022-08-03T04:09:23;97901.66;;;22.03;44.74
13553;BME280;6847;48.830;9.116;2022-08-03T04:12:28;97903.50;;;21.99;44.73
13553;BME280;6847;48.830;9.116;2022-08-03T04:15:15;97870.94;;;21.76;44.84
13553;BME280;6847;48.830;9.116;2022-08-03T04:18:02;97868.47;;;21.71;44.97
13553;BME280;6847;48.830;9.116;2022-08-03T04:20:49;97906.13;;;21.95;44.84
13553;BME280;6847;48.830;9.116;2022-08-03T04:23:39;97874.97;;;21.79;44.92
13553;BME280;6847;48.830;9.116;2022-08-03T04:26:30;97904.66;;;21.98;44.97
13553;BME280;6847;48.830;9.116;2022-08-03T04:29:18;97878.06;;;21.77;44.89
13553;BME280;6847;48.830;9.116;2022-08-03T04:32:05;97909.47;;;22.01;45.08
13553;BME280;6847;48.830;9.116;2022-08-03T04:34:51;97880.13;;;21.81;44.99
13553;BME280;6847;48.830;9.116;2022-08-03T04:37:40;97913.59;;;22.07;45.00
13553;BME280;6847;48.830;9.116;2022-08-03T04:40:31;97920.69;;;22.08;45.00
13553;BME280;6847;48.830;9.116;2022-08-03T04:43:17;97918.84;;;22.12;45.17
13553;BME280;6847;48.830;9.116;2022-08-03T04:46:08;97592.88;;;20.01;45.16
13553;BME280;6847;48.830;9.116;2022-08-03T04:48:54;97922.69;;;22.23;45.08
13553;BME280;6847;48.830;9.116;2022-08-03T04:51:42;97920.47;;;22.29;45.04
13553;BME280;6847;48.830;9.116;2022-08-03T04:54:29;97867.66;;;21.99;45.08
13553;BME280;6847;48.830;9.116;2022-08-03T04:57:14;97920.78;;;22.39;45.25
13553;BME280;6847;48.830;9.116;2022-08-03T04:59:59;97926.47;;;22.46;45.27
13553;BME280;6847;48.830;9.116;2022-08-03T05:02:45;97930.56;;;22.52;45.10
13553;BME280;6847;48.830;9.116;2022-08-03T05:05:32;97916.88;;;22.56;45.19
13553;BME280;6847;48.830;9.116;2022-08-03T05:08:18;97928.72;;;22.72;45.13
13553;BME280;6847;48.830;9.116;2022-08-03T05:11:04;97903.34;;;22.67;45.10
13553;BME280;6847;48.830;9.116;2022-08-03T05:13:50;97925.28;;;22.91;45.20
13553;BME280;6847;48.830;9.116;2022-08-03T05:16:35;97923.16;;;23.00;45.18
13553;BME280;6847;48.830;9.116;2022-08-03T05:19:20;97896.06;;;22.90;44.96
13553;BME280;6847;48.830;9.116;2022-08-03T05:22:05;97925.22;;;23.22;45.10
13553;BME280;6847;48.830;9.116;2022-08-03T05:24:50;97930.66;;;23.35;44.90
13553;BME280;6847;48.830;9.116;2022-08-03T05:27:36;97935.16;;;23.43;44.94
13553;BME280;6847;48.830;9.116;2022-08-03T05:30:21;97926.00;;;23.54;44.83
13553;BME280;6847;48.830;9.116;2022-08-03T05:33:07;97931.75;;;23.65;44.84
13553;BME280;6847;48.830;9.116;2022-08-03T05:35:52;97742.16;;;22.52;45.14
13553;BME280;6847;48.830;9.116;2022-08-03T05:38:37;97862.53;;;23.42;45.07
13553;BME280;6847;48.830;9.116;2022-08-03T05:41:22;97936.28;;;23.92;45.10
13553;BME280;6847;48.830;9.116;2022-08-03T05:44:08;97939.19;;;23.99;45.21
13553;BME280;6847;48.830;9.116;2022-08-03T05:46:53;97940.56;;;24.09;45.24
13553;BME280;6847;48.830;9.116;2022-08-03T05:49:39;97938.47;;;24.22;45.18
13553;BME280;6847;48.830;9.116;2022-08-03T05:52:24;97938.31;;;24.34;45.06
13553;BME280;6847;48.830;9.116;2022-08-03T05:55:11;97928.56;;;24.40;45.29
13553;BME280;6847;48.830;9.116;2022-08-03T05:57:56;97938.41;;;24.60;45.30
13553;BME280;6847;48.830;9.116;2022-08-03T06:00:45;97933.88;;;24.71;45.09
13553;BME280;6847;48.830;9.116;2022-08-03T06:03:31;97920.56;;;24.81;45.03
13553;BME280;6847;48.830;9.116;2022-08-03T06:06:17;97914.31;;;24.84;45.17
13553;BME280;6847;48.830;9.116;2022-08-03T06:09:03;97936.47;;;25.06;45.20
13553;BME280;6847;48.830;9.116;2022-08-03T06:11:51;97921.44;;;25.07;45.30
13553;BME280;6847;48.830;9.116;2022-08-03T06:14:36;97939.63;;;25.31;45.30
13553;BME280;6847;48.830;9.116;2022-08-03T06:17:23;97942.22;;;25.47;45.20
13553;BME280;6847;48.830;9.116;2022-08-03T06:20:10;97947.94;;;25.58;45.10
13553;BME280;6847;48.830;9.116;2022-08-03T06:22:55;97946.56;;;25.71;44.95
13553;BME280;6847;48.830;9.116;2022-08-03T06:25:40;97940.41;;;25.85;45.29
13553;BME280;6847;48.830;9.116;2022-08-03T06:28:25;97942.19;;;26.00;45.03
13553;BME280;6847;48.830;9.116;2022-08-03T06:31:11;97939.19;;;26.15;44.94
13553;BME280;6847;48.830;9.116;2022-08-03T06:33:57;97940.56;;;26.29;44.85
13553;BME280;6847;48.830;9.116;2022-08-03T06:36:43;97932.75;;;26.38;44.60
13553;BME280;6847;48.830;9.116;2022-08-03T06:39:31;97881.41;;;26.25;44.90
13553;BME280;6847;48.830;9.116;2022-08-03T06:42:16;97941.88;;;26.79;44.67
13553;BME280;6847;48.830;9.116;2022-08-03T06:45:02;97945.59;;;26.94;44.39
13553;BME280;6847;48.830;9.116;2022-08-03T06:48:02;97940.22;;;27.15;44.29
13553;BME280;6847;48.830;9.116;2022-08-03T06:50:49;97929.19;;;27.22;44.43
13553;BME280;6847;48.830;9.116;2022-08-03T06:53:35;97911.72;;;27.25;44.26
13553;BME280;6847;48.830;9.116;2022-08-03T06:56:21;97947.31;;;27.56;44.41
13553;BME280;6847;48.830;9.116;2022-08-03T06:59:07;97954.16;;;27.70;44.38
13553;BME280;6847;48.830;9.116;2022-08-03T07:01:52;97948.66;;;27.84;44.24
13553;BME280;6847;48.830;9.116;2022-08-03T07:04:38;97951.91;;;27.96;44.13
13553;BME280;6847;48.830;9.116;2022-08-03T07:10:44;97948.88;;;28.33;44.02
13553;BME280;6847;48.830;9.116;2022-08-03T07:13:29;97949.34;;;28.50;43.89
13553;BME280;6847;48.830;9.116;2022-08-03T07:16:14;97950.56;;;28.63;43.76
13553;BME280;6847;48.830;9.116;2022-08-03T07:19:00;97953.38;;;28.73;44.02
13553;BME280;6847;48.830;9.116;2022-08-03T07:21:46;97950.63;;;28.84;43.78
13553;BME280;6847;48.830;9.116;2022-08-03T07:24:33;97879.72;;;28.50;43.32
13553;BME280;6847;48.830;9.116;2022-08-03T07:27:46;97943.47;;;29.12;43.35
13553;BME280;6847;48.830;9.116;2022-08-03T07:30:32;97946.25;;;29.26;43.06
13553;BME280;6847;48.830;9.116;2022-08-03T07:33:18;97948.25;;;29.43;43.38
13553;BME280;6847;48.830;9.116;2022-08-03T07:36:03;97956.63;;;29.57;43.10
13553;BME280;6847;48.830;9.116;2022-08-03T07:38:49;97960.97;;;29.72;43.07
13553;BME280;6847;48.830;9.116;2022-08-03T07:41:35;97955.34;;;29.87;42.84
13553;BME280;6847;48.830;9.116;2022-08-03T07:44:21;97958.50;;;29.89;42.51
13553;BME280;6847;48.830;9.116;2022-08-03T07:47:06;97932.63;;;29.77;42.66
13553;BME280;6847;48.830;9.116;2022-08-03T07:49:55;97963.69;;;30.01;42.62
13553;BME280;6847;48.830;9.116;2022-08-03T07:52:41;97956.44;;;30.21;42.11
13553;BME280;6847;48.830;9.116;2022-08-03T07:55:35;97957.91;;;30.47;42.21
13553;BME280;6847;48.830;9.116;2022-08-03T07:58:23;97957.84;;;30.65;41.56
13553;BME280;6847;48.830;9.116;2022-08-03T08:01:09;97955.72;;;30.83;41.22
13553;BME280;6847;48.830;9.116;2022-08-03T08:03:55;97958.78;;;30.99;40.95
13553;BME280;6847;48.830;9.116;2022-08-03T08:06:40;97956.34;;;31.12;41.05
13553;BME280;6847;48.830;9.116;2022-08-03T08:09:26;97961.09;;;31.15;40.75
13553;BME280;6847;48.830;9.116;2022-08-03T08:12:13;97957.47;;;31.18;40.81
13553;BME280;6847;48.830;9.116;2022-08-03T08:15:01;97947.31;;;31.38;40.29
13553;BME280;6847;48.830;9.116;2022-08-03T08:17:48;97940.63;;;31.70;40.20
13553;BME280;6847;48.830;9.116;2022-08-03T08:20:35;97940.31;;;31.98;39.88
13553;BME280;6847;48.830;9.116;2022-08-03T08:23:21;97929.34;;;32.11;39.42
13553;BME280;6847;48.830;9.116;2022-08-03T08:26:06;97947.00;;;32.42;39.53
13553;BME280;6847;48.830;9.116;2022-08-03T08:28:52;97947.88;;;32.62;38.92
13553;BME280;6847;48.830;9.116;2022-08-03T08:31:41;97955.72;;;32.78;38.82
13553;BME280;6847;48.830;9.116;2022-08-03T08:34:28;97947.22;;;32.81;38.56
13553;BME280;6847;48.830;9.116;2022-08-03T08:37:13;97952.81;;;32.85;38.83
13553;BME280;6847;48.830;9.116;2022-08-03T08:39:59;97932.91;;;32.76;38.12
13553;BME280;6847;48.830;9.116;2022-08-03T08:42:45;97943.81;;;32.97;38.08
13553;BME280;6847;48.830;9.116;2022-08-03T08:45:33;97864.25;;;32.60;37.54
13553;BME280;6847;48.830;9.116;2022-08-03T08:48:24;97945.06;;;33.19;37.62
13553;BME280;6847;48.830;9.116;2022-08-03T08:51:11;97946.59;;;33.24;37.17
13553;BME280;6847;48.830;9.116;2022-08-03T08:54:01;97940.66;;;33.41;36.83
13553;BME280;6847;48.830;9.116;2022-08-03T08:56:47;97954.41;;;33.59;36.88
13553;BME280;6847;48.830;9.116;2022-08-03T08:59:35;97951.75;;;33.72;36.53
13553;BME280;6847;48.830;9.116;2022-08-03T09:02:21;97951.59;;;34.02;36.01
13553;BME280;6847;48.830;9.116;2022-08-03T09:05:09;97948.94;;;34.35;35.82
13553;BME280;6847;48.830;9.116;2022-08-03T09:07:56;97962.38;;;34.63;35.55
13553;BME280;6847;48.830;9.116;2022-08-03T09:10:43;97957.34;;;34.91;35.42
13553;BME280;6847;48.830;9.116;2022-08-03T09:13:28;97958.59;;;35.06;35.39
13553;BME280;6847;48.830;9.116;2022-08-03T09:16:17;97948.56;;;35.21;34.54
13553;BME280;6847;48.830;9.116;2022-08-03T09:19:11;97948.13;;;35.55;34.58
13553;BME280;6847;48.830;9.116;2022-08-03T09:22:11;97944.72;;;35.92;34.23
13553;BME280;6847;48.830;9.116;2022-08-03T09:24:59;97943.50;;;36.06;34.29
13553;BME280;6847;48.830;9.116;2022-08-03T09:27:46;97939.56;;;36.32;34.06
13553;BME280;6847;48.830;9.116;2022-08-03T09:30:35;97944.44;;;36.57;33.50
13553;BME280;6847;48.830;9.116;2022-08-03T09:33:22;97950.66;;;36.65;33.45
13553;BME280;6847;48.830;9.116;2022-08-03T09:36:08;97947.16;;;36.61;33.21
13553;BME280;6847;48.830;9.116;2022-08-03T09:39:03;97919.63;;;36.52;33.49
13553;BME280;6847;48.830;9.116;2022-08-03T09:42:05;97950.13;;;36.95;32.74
13553;BME280;6847;48.830;9.116;2022-08-03T09:44:53;97941.69;;;37.55;31.69
13553;BME280;6847;48.830;9.116;2022-08-03T09:47:38;97946.34;;;38.18;31.48
13553;BME280;6847;48.830;9.116;2022-08-03T09:50:26;97916.13;;;38.99;29.91
13553;BME280;6847;48.830;9.116;2022-08-03T09:53:12;97944.13;;;40.46;28.32
13553;BME280;6847;48.830;9.116;2022-08-03T09:56:01;97946.84;;;41.49;27.44
13553;BME280;6847;48.830;9.116;2022-08-03T09:58:50;97944.69;;;42.59;26.34
13553;BME280;6847;48.830;9.116;2022-08-03T10:01:36;97946.66;;;43.73;24.86
13553;BME280;6847;48.830;9.116;2022-08-03T10:04:25;97953.47;;;45.05;23.87
13553;BME280;6847;48.830;9.116;2022-08-03T10:07:11;97950.16;;;45.12;23.85
13553;BME280;6847;48.830;9.116;2022-08-03T10:10:00;97945.72;;;44.79;24.13
13553;BME280;6847;48.830;9.116;2022-08-03T10:12:48;97942.19;;;45.27;23.62
13553;BME280;6847;48.830;9.116;2022-08-03T10:15:34;97947.09;;;44.89;23.53
13553;BME280;6847;48.830;9.116;2022-08-03T10:18:22;97950.75;;;45.21;23.20
13553;BME280;6847;48.830;9.116;2022-08-03T10:21:10;97934.75;;;46.05;22.49
13553;BME280;6847;48.830;9.116;2022-08-03T10:24:03;97919.50;;;46.59;21.63
13553;BME280;6847;48.830;9.116;2022-08-03T10:26:54;97933.41;;;47.63;20.95
13553;BME280;6847;48.830;9.116;2022-08-03T10:29:52;97934.34;;;48.45;20.55
13553;BME280;6847;48.830;9.116;2022-08-03T10:32:40;97934.06;;;48.79;20.29
13553;BME280;6847;48.830;9.116;2022-08-03T10:35:28;97937.09;;;48.92;20.20
13553;BME280;6847;48.830;9.116;2022-08-03T10:38:17;97937.38;;;49.18;19.96
13553;BME280;6847;48.830;9.116;2022-08-03T10:41:05;97931.38;;;48.56;20.32
13553;BME280;6847;48.830;9.116;2022-08-03T10:43:55;97919.91;;;48.10;20.54
13553;BME280;6847;48.830;9.116;2022-08-03T10:46:50;97918.47;;;47.87;20.49
13553;BME280;6847;48.830;9.116;2022-08-03T10:49:35;97921.72;;;48.13;20.12
13553;BME280;6847;48.830;9.116;2022-08-03T10:52:23;97914.69;;;48.49;19.74
13553;BME280;6847;48.830;9.116;2022-08-03T10:55:29;97909.25;;;48.40;19.71
13553;BME280;6847;48.830;9.116;2022-08-03T10:58:49;97903.56;;;47.25;20.38
13553;BME280;6847;48.830;9.116;2022-08-03T11:01:51;97902.84;;;46.80;20.19
13553;BME280;6847;48.830;9.116;2022-08-03T11:05:26;97913.50;;;46.57;20.02
13553;BME280;6847;48.830;9.116;2022-08-03T11:08:26;97870.56;;;46.68;19.72
13553;BME280;6847;48.830;9.116;2022-08-03T11:11:26;97905.16;;;47.03;19.82
13553;BME280;6847;48.830;9.116;2022-08-03T11:14:16;97904.56;;;47.33;19.60
13553;BME280;6847;48.830;9.116;2022-08-03T11:17:07;97842.63;;;47.07;19.36
13553;BME280;6847;48.830;9.116;2022-08-03T11:19:53;97892.66;;;46.95;19.60
13553;BME280;6847;48.830;9.116;2022-08-03T11:22:47;97889.22;;;46.02;20.09
13553;BME280;6847;48.830;9.116;2022-08-03T11:29:10;97884.56;;;44.97;20.42
13553;BME280;6847;48.830;9.116;2022-08-03T11:32:01;97881.91;;;44.88;20.12
13553;BME280;6847;48.830;9.116;2022-08-03T11:35:05;97886.03;;;45.24;19.84
13553;BME280;6847;48.830;9.116;2022-08-03T11:38:10;97859.22;;;45.81;19.47
13553;BME280;6847;48.830;9.116;2022-08-03T11:40:57;97875.75;;;46.47;18.87
13553;BME280;6847;48.830;9.116;2022-08-03T11:43:45;97880.16;;;46.87;18.56
13553;BME280;6847;48.830;9.116;2022-08-03T11:46:36;97878.34;;;46.28;19.13
13553;BME280;6847;48.830;9.116;2022-08-03T11:49:26;97873.50;;;45.64;19.41
13553;BME280;6847;48.830;9.116;2022-08-03T11:52:13;97868.13;;;45.23;19.68
13553;BME280;6847;48.830;9.116;2022-08-03T11:55:01;97874.38;;;44.90;19.86
13553;BME280;6847;48.830;9.116;2022-08-03T11:57:47;97871.63;;;44.70;20.05
13553;BME280;6847;48.830;9.116;2022-08-03T12:00:35;97863.56;;;44.69;19.88
13553;BME280;6847;48.830;9.116;2022-08-03T12:03:21;97864.16;;;44.78;20.10
13553;BME280;6847;48.830;9.116;2022-08-03T12:06:11;97854.66;;;44.92;19.74
13553;BME280;6847;48.830;9.116;2022-08-03T12:08:58;97868.78;;;44.70;19.86
13553;BME280;6847;48.830;9.116;2022-08-03T12:11:48;97849.25;;;44.32;20.13
13553;BME280;6847;48.830;9.116;2022-08-03T12:14:34;97861.72;;;43.82;20.48
13553;BME280;6847;48.830;9.116;2022-08-03T12:17:20;97849.97;;;43.14;20.98
13553;BME280;6847;48.830;9.116;2022-08-03T12:20:13;97847.31;;;42.75;20.87
13553;BME280;6847;48.830;9.116;2022-08-03T12:23:08;97839.97;;;42.83;21.18
13553;BME280;6847;48.830;9.116;2022-08-03T12:26:00;97848.22;;;42.81;21.00
13553;BME280;6847;48.830;9.116;2022-08-03T12:28:46;97845.94;;;42.36;20.76
13553;BME280;6847;48.830;9.116;2022-08-03T12:31:35;97836.09;;;42.22;21.29
13553;BME280;6847;48.830;9.116;2022-08-03T12:34:22;97815.47;;;41.68;21.32
13553;BME280;6847;48.830;9.116;2022-08-03T12:37:07;97847.28;;;41.82;21.19
13553;BME280;6847;48.830;9.116;2022-08-03T12:39:56;97777.91;;;41.64;21.06
13553;BME280;6847;48.830;9.116;2022-08-03T12:42:47;97826.66;;;42.60;21.01
13553;BME280;6847;48.830;9.116;2022-08-03T12:45:34;97835.13;;;43.10;20.52
13553;BME280;6847;48.830;9.116;2022-08-03T12:48:28;97836.25;;;43.33;20.33
13553;BME280;6847;48.830;9.116;2022-08-03T12:51:16;97807.78;;;43.59;20.10
13553;BME280;6847;48.830;9.116;2022-08-03T12:54:05;97828.16;;;44.23;20.21
13553;BME280;6847;48.830;9.116;2022-08-03T12:56:59;97830.66;;;43.90;20.18
13553;BME280;6847;48.830;9.116;2022-08-03T12:59:47;97835.88;;;44.17;20.16
13553;BME280;6847;48.830;9.116;2022-08-03T13:02:35;97822.88;;;44.79;19.82
13553;BME280;6847;48.830;9.116;2022-08-03T13:05:20;97819.56;;;45.40;19.32
13553;BME280;6847;48.830;9.116;2022-08-03T13:08:17;97817.41;;;46.00;18.65
13553;BME280;6847;48.830;9.116;2022-08-03T13:11:17;97816.88;;;46.18;19.18
13553;BME280;6847;48.830;9.116;2022-08-03T13:14:05;97814.03;;;46.52;18.95
13553;BME280;6847;48.830;9.116;2022-08-03T13:16:52;97816.31;;;47.03;18.22
13553;BME280;6847;48.830;9.116;2022-08-03T13:19:39;97824.97;;;46.81;18.22
13553;BME280;6847;48.830;9.116;2022-08-03T13:22:26;97807.81;;;46.42;18.76
13553;BME280;6847;48.830;9.116;2022-08-03T13:25:11;97817.41;;;46.45;18.70
13553;BME280;6847;48.830;9.116;2022-08-03T13:27:56;97826.22;;;46.86;18.73
13553;BME280;6847;48.830;9.116;2022-08-03T13:30:45;97810.53;;;47.20;18.13
13553;BME280;6847;48.830;9.116;2022-08-03T13:33:31;97778.28;;;47.55;17.86
13553;BME280;6847;48.830;9.116;2022-08-03T13:36:17;97783.25;;;47.96;17.71
13553;BME280;6847;48.830;9.116;2022-08-03T13:39:03;97811.22;;;48.25;17.73
13553;BME280;6847;48.830;9.116;2022-08-03T13:41:49;97806.88;;;48.43;17.60
13553;BME280;6847;48.830;9.116;2022-08-03T13:44:37;97804.94;;;48.56;17.79
13553;BME280;6847;48.830;9.116;2022-08-03T13:47:25;97801.47;;;48.64;17.60
13553;BME280;6847;48.830;9.116;2022-08-03T13:50:10;97809.38;;;48.28;17.80
13553;BME280;6847;48.830;9.116;2022-08-03T13:52:56;97798.78;;;47.70;18.06
13553;BME280;6847;48.830;9.116;2022-08-03T13:55:42;97798.00;;;47.75;18.00
13553;BME280;6847;48.830;9.116;2022-08-03T13:58:27;97791.56;;;47.58;17.69
13553;BME280;6847;48.830;9.116;2022-08-03T14:01:13;97787.72;;;47.50;17.92
13553;BME280;6847;48.830;9.116;2022-08-03T14:04:00;97788.84;;;47.25;18.12
13553;BME280;6847;48.830;9.116;2022-08-03T14:06:47;97741.66;;;46.23;18.56
13553;BME280;6847;48.830;9.116;2022-08-03T14:09:32;97775.25;;;46.00;18.61
13553;BME280;6847;48.830;9.116;2022-08-03T14:12:31;97776.28;;;45.97;18.78
13553;BME280;6847;48.830;9.116;2022-08-03T14:15:17;97765.88;;;45.94;18.09
13553;BME280;6847;48.830;9.116;2022-08-03T14:18:03;97758.06;;;45.84;18.66
13553;BME280;6847;48.830;9.116;2022-08-03T14:20:55;97766.81;;;44.87;18.99
13553;BME280;6847;48.830;9.116;2022-08-03T14:23:50;97757.53;;;44.18;19.16
13553;BME280;6847;48.830;9.116;2022-08-03T14:26:58;97774.41;;;44.16;19.21
13553;BME280;6847;48.830;9.116;2022-08-03T14:29:46;97766.22;;;44.72;18.62
13553;BME280;6847;48.830;9.116;2022-08-03T14:32:34;97766.59;;;45.50;18.56
13553;BME280;6847;48.830;9.116;2022-08-03T14:35:19;97754.44;;;46.00;17.81
13553;BME280;6847;48.830;9.116;2022-08-03T14:38:06;97762.00;;;46.25;17.79
13553;BME280;6847;48.830;9.116;2022-08-03T14:40:51;97753.91;;;46.40;17.97
13553;BME280;6847;48.830;9.116;2022-08-03T14:43:36;97755.41;;;46.75;17.59
13553;BME280;6847;48.830;9.116;2022-08-03T14:46:23;97743.19;;;46.69;18.00
13553;BME280;6847;48.830;9.116;2022-08-03T14:49:09;97762.47;;;46.63;18.09
13553;BME280;6847;48.830;9.116;2022-08-03T14:51:54;97697.41;;;46.24;18.05
13553;BME280;6847;48.830;9.116;2022-08-03T14:54:46;97750.50;;;46.48;18.32
13553;BME280;6847;48.830;9.116;2022-08-03T14:57:35;97756.25;;;46.48;18.22
13553;BME280;6847;48.830;9.116;2022-08-03T15:00:22;97742.91;;;46.78;18.12
13553;BME280;6847;48.830;9.116;2022-08-03T15:03:12;97757.66;;;47.04;17.90
13553;BME280;6847;48.830;9.116;2022-08-03T15:05:59;97749.69;;;47.33;17.54
13553;BME280;6847;48.830;9.116;2022-08-03T15:08:49;97744.22;;;47.35;17.67
13553;BME280;6847;48.830;9.116;2022-08-03T15:11:38;97708.16;;;46.98;17.37
13553;BME280;6847;48.830;9.116;2022-08-03T15:14:23;97720.28;;;46.58;18.12